createdAt,value
2023-04-18T00:06:32.773Z,15.95
2023-04-18T00:16:38.159Z,16.92
2023-04-18T00:26:41.266Z,17.05
2023-04-18T00:36:46.354Z,17.63
2023-04-18T00:46:49.360Z,17.43
2023-04-18T00:56:54.034Z,15.85
2023-04-18T01:06:57.232Z,14.52
2023-04-18T01:17:02.287Z,13.40
2023-04-18T01:37:12.215Z,14.38
2023-04-18T01:47:17.644Z,11.27
2023-04-18T01:57:20.668Z,10.40
2023-04-18T02:07:26.814Z,14.43
2023-04-18T02:17:30.530Z,10.60
2023-04-18T02:27:34.963Z,14.82
2023-04-18T02:37:37.938Z,14.87
2023-04-18T02:47:53.792Z,13.88
2023-04-18T02:57:58.934Z,13.98
2023-04-18T03:08:09.384Z,14.98
2023-04-18T03:18:14.748Z,15.32
2023-04-18T03:28:21.722Z,14.68
2023-04-18T03:38:24.840Z,14.90
2023-04-18T03:48:29.825Z,15.55
2023-04-18T03:58:37.062Z,14.40
2023-04-18T04:08:41.791Z,14.93
2023-04-18T04:18:45.007Z,14.47
2023-04-18T04:28:51.630Z,12.20
2023-04-18T04:38:58.621Z,14.68
2023-04-18T04:49:11.653Z,14.45
2023-04-18T04:59:14.941Z,15.10
2023-04-18T05:09:22.092Z,13.48
2023-04-18T05:19:25.220Z,12.27
2023-04-18T05:29:29.744Z,15.07
2023-04-18T05:39:32.751Z,13.10
2023-04-18T05:49:37.226Z,13.95
2023-04-18T05:59:40.340Z,12.63
2023-04-18T06:09:44.820Z,14.30
2023-04-18T06:19:47.881Z,14.47
2023-04-18T06:29:52.255Z,14.00
2023-04-18T06:39:55.322Z,14.80
2023-04-18T06:49:59.777Z,14.00
2023-04-18T07:00:02.827Z,13.30
2023-04-18T07:10:09.916Z,13.73
2023-04-18T07:20:14.409Z,13.43
2023-04-18T07:30:18.953Z,12.33
2023-04-18T07:40:22.512Z,12.67
2023-04-18T07:50:27.093Z,12.60
2023-04-18T08:00:32.632Z,12.03
2023-04-18T08:10:37.957Z,11.75
2023-04-18T08:20:41.209Z,12.00
2023-04-18T08:30:48.769Z,12.10
2023-04-18T08:40:51.880Z,12.30
2023-04-18T08:50:59.694Z,13.00
2023-04-18T09:01:03.475Z,12.02
2023-04-18T09:11:26.176Z,11.50
2023-04-18T09:21:29.801Z,12.02
2023-04-18T09:31:35.773Z,11.15
2023-04-18T09:41:38.794Z,10.27
2023-04-18T09:51:44.693Z,10.48
2023-04-18T10:01:48.658Z,10.38
2023-04-18T10:11:53.987Z,7.67
2023-04-18T10:21:58.979Z,8.07
2023-04-18T10:32:07.353Z,6.25
2023-04-18T10:42:10.423Z,7.22
2023-04-18T10:52:15.675Z,7.57
2023-04-18T11:02:26.269Z,7.00
2023-04-18T11:12:34.229Z,7.57
2023-04-18T11:22:46.594Z,8.00
2023-04-18T11:32:51.822Z,9.45
2023-04-18T11:42:55.735Z,12.30
2023-04-18T11:53:00.162Z,10.97
2023-04-18T12:03:05.480Z,11.27
2023-04-18T12:13:10.155Z,11.38
2023-04-18T12:23:30.875Z,13.10
2023-04-18T12:33:36.749Z,13.98
2023-04-18T12:43:39.851Z,15.48
2023-04-18T12:53:44.202Z,14.98
2023-04-18T13:03:56.515Z,14.52
2023-04-18T13:14:08.687Z,14.27
2023-04-18T13:24:12.155Z,14.90
2023-04-18T13:34:17.653Z,17.70
2023-04-18T13:44:21.210Z,17.10
2023-04-18T13:54:26.713Z,18.00
2023-04-18T14:04:31.949Z,17.35
2023-04-18T14:14:37.123Z,18.95
2023-04-18T14:24:40.331Z,20.25
2023-04-18T14:34:45.216Z,19.80
2023-04-18T14:44:48.364Z,20.23
2023-04-18T14:54:52.729Z,18.23
2023-04-18T15:04:55.867Z,18.80
2023-04-18T15:15:00.649Z,18.58
2023-04-18T15:25:04.155Z,18.63
2023-04-18T15:35:09.412Z,18.03
2023-04-18T15:45:13.143Z,18.33
2023-04-18T15:55:17.565Z,17.30
2023-04-18T16:05:21.395Z,19.52
2023-04-18T16:15:26.211Z,20.53
2023-04-18T16:25:30.502Z,19.33
2023-04-18T16:35:35.801Z,19.73
2023-04-18T16:45:38.814Z,20.13
2023-04-18T16:55:43.276Z,20.77
2023-04-18T17:05:46.675Z,21.48
2023-04-18T17:15:51.219Z,19.15
2023-04-18T17:25:54.266Z,20.10
2023-04-18T17:35:58.710Z,18.48
2023-04-18T17:46:03.636Z,20.40
2023-04-18T17:56:08.259Z,20.83
2023-04-18T18:06:12.990Z,19.33
2023-04-18T18:16:17.419Z,19.42
2023-04-18T18:26:20.439Z,20.47
2023-04-18T18:36:25.036Z,21.60
2023-04-18T18:46:28.310Z,24.40
2023-04-18T18:56:32.817Z,20.50
2023-04-18T19:06:35.878Z,19.93
2023-04-18T19:16:40.320Z,19.80
2023-04-18T19:26:43.540Z,20.27
2023-04-18T19:36:48.006Z,20.95
2023-04-18T19:46:51.081Z,19.60
2023-04-18T19:56:55.602Z,19.10
2023-04-18T20:06:58.608Z,19.23
2023-04-18T20:17:03.063Z,19.77
2023-04-18T20:27:06.308Z,19.67
2023-04-18T20:37:10.690Z,19.52
2023-04-18T20:47:15.248Z,17.67
2023-04-18T20:57:20.964Z,19.20
2023-04-18T21:07:23.961Z,18.48
2023-04-18T21:17:28.327Z,17.50
2023-04-18T21:27:31.620Z,17.57
2023-04-18T21:37:36.123Z,18.75
2023-04-18T21:47:39.529Z,18.67
2023-04-18T21:57:43.909Z,18.40
2023-04-18T22:07:57.457Z,16.40
2023-04-18T22:18:03.875Z,17.95
2023-04-18T22:28:08.487Z,16.60
2023-04-18T22:38:12.922Z,17.60
2023-04-18T22:48:17.127Z,18.53
2023-04-18T22:58:21.560Z,15.43
2023-04-18T23:08:24.518Z,17.67
2023-04-18T23:18:29.843Z,19.38
2023-04-18T23:28:34.003Z,19.38
2023-04-18T23:38:38.493Z,19.30
2023-04-18T23:48:41.489Z,18.77
2023-04-18T23:58:45.828Z,19.13
